sensor_id;sensor_type;location;lat;lon;timestamp;pressure;altitude;pressure_sealevel;temperature;humidity
51452;BME280;37521;52.020;-1.740;2022-11-13T00:01:12;100631.66;;;6.48;100.00
51452;BME280;37521;52.020;-1.740;2022-11-13T00:04:00;100634.31;;;6.47;100.00
51452;BME280;37521;52.020;-1.740;2022-11-13T00:06:47;100630.13;;;6.38;100.00
51452;BME280;37521;52.020;-1.740;2022-11-13T00:09:40;100630.44;;;6.23;100.00
51452;BME280;37521;52.020;-1.740;2022-11-13T00:12:28;100625.31;;;6.15;100.00
51452;BME280;37521;52.020;-1.740;2022-11-13T00:15:14;100634.19;;;6.07;100.00
51452;BME280;37521;52.020;-1.740;2022-11-13T00:18:01;100625.50;;;6.05;100.00
51452;BME280;37521;52.020;-1.740;2022-11-13T00:20:49;100616.81;;;6.03;100.00
51452;BME280;37521;52.020;-1.740;2022-11-13T00:23:36;100623.16;;;5.86;100.00
51452;BME280;37521;52.020;-1.740;2022-11-13T00:26:24;100625.22;;;5.69;100.00
51452;BME280;37521;52.020;-1.740;2022-11-13T00:29:10;100623.59;;;5.60;100.00
51452;BME280;37521;52.020;-1.740;2022-11-13T00:31:57;100621.19;;;5.46;100.00
51452;BME280;37521;52.020;-1.740;2022-11-13T00:34:44;100624.81;;;5.39;100.00
51452;BME280;37521;52.020;-1.740;2022-11-13T00:37:33;100630.72;;;5.52;100.00
51452;BME280;37521;52.020;-1.740;2022-11-13T00:40:20;100618.34;;;5.62;100.00
51452;BME280;37521;52.020;-1.740;2022-11-13T00:43:07;100624.34;;;5.67;100.00
51452;BME280;37521;52.020;-1.740;2022-11-13T00:45:54;100625.25;;;5.66;100.00
51452;BME280;37521;52.020;-1.740;2022-11-13T00:48:40;100620.84;;;5.68;100.00
51452;BME280;37521;52.020;-1.740;2022-11-13T00:51:27;100620.72;;;5.77;100.00
51452;BME280;37521;52.020;-1.740;2022-11-13T00:54:15;100613.50;;;5.91;100.00
51452;BME280;37521;52.020;-1.740;2022-11-13T00:57:02;100612.50;;;5.98;100.00
51452;BME280;37521;52.020;-1.740;2022-11-13T00:59:48;100603.59;;;6.07;100.00
51452;BME280;37521;52.020;-1.740;2022-11-13T01:02:35;100604.19;;;6.21;100.00
51452;BME280;37521;52.020;-1.740;2022-11-13T01:05:22;100596.81;;;6.42;100.00
51452;BME280;37521;52.020;-1.740;2022-11-13T01:08:09;100589.50;;;6.58;100.00
51452;BME280;37521;52.020;-1.740;2022-11-13T01:10:58;100591.03;;;6.68;100.00
51452;BME280;37521;52.020;-1.740;2022-11-13T01:13:46;100587.38;;;6.75;100.00
51452;BME280;37521;52.020;-1.740;2022-11-13T01:16:33;100576.72;;;6.84;100.00
51452;BME280;37521;52.020;-1.740;2022-11-13T01:19:20;100579.94;;;6.95;100.00
51452;BME280;37521;52.020;-1.740;2022-11-13T01:22:06;100575.41;;;7.02;100.00
51452;BME280;37521;52.020;-1.740;2022-11-13T01:24:53;100567.44;;;7.06;100.00
51452;BME280;37521;52.020;-1.740;2022-11-13T01:27:41;100571.75;;;7.10;100.00
51452;BME280;37521;52.020;-1.740;2022-11-13T01:30:27;100575.13;;;7.16;100.00
51452;BME280;37521;52.020;-1.740;2022-11-13T01:33:14;100573.22;;;7.21;100.00
51452;BME280;37521;52.020;-1.740;2022-11-13T01:36:02;100572.19;;;7.28;100.00
51452;BME280;37521;52.020;-1.740;2022-11-13T01:38:51;100579.88;;;7.35;100.00
51452;BME280;37521;52.020;-1.740;2022-11-13T01:41:38;100587.59;;;7.43;100.00
51452;BME280;37521;52.020;-1.740;2022-11-13T01:44:44;100589.22;;;7.47;100.00
51452;BME280;37521;52.020;-1.740;2022-11-13T01:47:31;100589.09;;;7.53;100.00
51452;BME280;37521;52.020;-1.740;2022-11-13T01:50:18;100589.03;;;7.56;100.00
51452;BME280;37521;52.020;-1.740;2022-11-13T01:53:05;100587.22;;;7.58;100.00
51452;BME280;37521;52.020;-1.740;2022-11-13T01:55:52;100580.09;;;7.63;100.00
51452;BME280;37521;52.020;-1.740;2022-11-13T01:58:39;100572.91;;;7.70;100.00
51452;BME280;37521;52.020;-1.740;2022-11-13T02:01:29;100583.22;;;7.78;100.00
51452;BME280;37521;52.020;-1.740;2022-11-13T02:04:16;100579.13;;;8.00;100.00
51452;BME280;37521;52.020;-1.740;2022-11-13T02:07:05;100564.56;;;8.19;100.00
51452;BME280;37521;52.020;-1.740;2022-11-13T02:09:54;100552.75;;;8.34;100.00
51452;BME280;37521;52.020;-1.740;2022-11-13T02:12:46;100562.22;;;8.43;100.00
51452;BME280;37521;52.020;-1.740;2022-11-13T02:15:34;100552.13;;;8.57;100.00
51452;BME280;37521;52.020;-1.740;2022-11-13T02:18:23;100555.34;;;8.67;100.00
51452;BME280;37521;52.020;-1.740;2022-11-13T02:21:21;100547.41;;;8.68;100.00
51452;BME280;37521;52.020;-1.740;2022-11-13T02:24:22;100548.25;;;8.70;100.00
51452;BME280;37521;52.020;-1.740;2022-11-13T02:27:15;100538.41;;;8.76;100.00
51452;BME280;37521;52.020;-1.740;2022-11-13T02:30:23;100539.19;;;8.79;100.00
51452;BME280;37521;52.020;-1.740;2022-11-13T02:33:36;100532.94;;;8.82;100.00
51452;BME280;37521;52.020;-1.740;2022-11-13T02:36:24;100529.31;;;8.86;100.00
51452;BME280;37521;52.020;-1.740;2022-11-13T02:39:12;100533.72;;;8.85;100.00
51452;BME280;37521;52.020;-1.740;2022-11-13T02:42:00;100532.78;;;8.88;100.00
51452;BME280;37521;52.020;-1.740;2022-11-13T02:44:46;100527.41;;;8.91;100.00
51452;BME280;37521;52.020;-1.740;2022-11-13T02:47:33;100516.78;;;8.94;100.00
51452;BME280;37521;52.020;-1.740;2022-11-13T02:50:20;100514.16;;;8.94;100.00
51452;BME280;37521;52.020;-1.740;2022-11-13T02:53:07;100512.31;;;8.96;100.00
51452;BME280;37521;52.020;-1.740;2022-11-13T02:55:54;100505.25;;;8.98;100.00
51452;BME280;37521;52.020;-1.740;2022-11-13T02:58:42;100499.06;;;8.99;100.00
51452;BME280;37521;52.020;-1.740;2022-11-13T03:01:29;100494.66;;;8.99;100.00
51452;BME280;37521;52.020;-1.740;2022-11-13T03:04:15;100492.03;;;8.99;100.00
51452;BME280;37521;52.020;-1.740;2022-11-13T03:07:02;100483.16;;;9.02;100.00
51452;BME280;37521;52.020;-1.740;2022-11-13T03:09:49;100475.16;;;9.05;100.00
51452;BME280;37521;52.020;-1.740;2022-11-13T03:12:36;100473.34;;;9.07;100.00
51452;BME280;37521;52.020;-1.740;2022-11-13T03:15:24;100471.47;;;9.11;100.00
51452;BME280;37521;52.020;-1.740;2022-11-13T03:18:11;100467.06;;;9.11;100.00
51452;BME280;37521;52.020;-1.740;2022-11-13T03:21:05;100469.59;;;9.14;100.00
51452;BME280;37521;52.020;-1.740;2022-11-13T03:23:52;100468.59;;;9.18;100.00
51452;BME280;37521;52.020;-1.740;2022-11-13T03:26:39;100466.75;;;9.20;100.00
51452;BME280;37521;52.020;-1.740;2022-11-13T03:29:25;100466.66;;;9.23;100.00
51452;BME280;37521;52.020;-1.740;2022-11-13T03:32:13;100461.41;;;9.23;100.00
51452;BME280;37521;52.020;-1.740;2022-11-13T03:35:00;100455.22;;;9.24;100.00
51452;BME280;37521;52.020;-1.740;2022-11-13T03:37:47;100455.16;;;9.26;100.00
51452;BME280;37521;52.020;-1.740;2022-11-13T03:40:33;100457.63;;;9.31;100.00
51452;BME280;37521;52.020;-1.740;2022-11-13T03:43:20;100448.81;;;9.32;100.00
51452;BME280;37521;52.020;-1.740;2022-11-13T03:46:07;100446.97;;;9.34;100.00
51452;BME280;37521;52.020;-1.740;2022-11-13T03:48:55;100441.81;;;9.31;100.00
51452;BME280;37521;52.020;-1.740;2022-11-13T03:51:42;100440.00;;;9.33;100.00
51452;BME280;37521;52.020;-1.740;2022-11-13T03:54:28;100431.28;;;9.31;100.00
51452;BME280;37521;52.020;-1.740;2022-11-13T03:57:15;100420.75;;;9.31;100.00
51452;BME280;37521;52.020;-1.740;2022-11-13T04:00:03;100423.31;;;9.32;100.00
51452;BME280;37521;52.020;-1.740;2022-11-13T04:02:50;100419.78;;;9.33;100.00
51452;BME280;37521;52.020;-1.740;2022-11-13T04:05:38;100409.22;;;9.33;100.00
51452;BME280;37521;52.020;-1.740;2022-11-13T04:08:24;100418.91;;;9.33;100.00
51452;BME280;37521;52.020;-1.740;2022-11-13T04:11:12;100406.66;;;9.32;100.00
51452;BME280;37521;52.020;-1.740;2022-11-13T04:13:58;100406.66;;;9.32;100.00
51452;BME280;37521;52.020;-1.740;2022-11-13T04:16:45;100401.38;;;9.32;100.00
51452;BME280;37521;52.020;-1.740;2022-11-13T04:19:32;100397.94;;;9.30;100.00
51452;BME280;37521;52.020;-1.740;2022-11-13T04:22:20;100390.94;;;9.28;100.00
51452;BME280;37521;52.020;-1.740;2022-11-13T04:25:07;100396.19;;;9.28;100.00
51452;BME280;37521;52.020;-1.740;2022-11-13T04:27:53;100398.03;;;9.26;100.00
51452;BME280;37521;52.020;-1.740;2022-11-13T04:30:40;100396.31;;;9.25;100.00
51452;BME280;37521;52.020;-1.740;2022-11-13T04:33:27;100381.50;;;9.23;100.00
51452;BME280;37521;52.020;-1.740;2022-11-13T04:36:13;100382.28;;;9.25;100.00
51452;BME280;37521;52.020;-1.740;2022-11-13T04:39:02;100378.84;;;9.23;100.00
51452;BME280;37521;52.020;-1.740;2022-11-13T04:41:48;100371.91;;;9.20;100.00
51452;BME280;37521;52.020;-1.740;2022-11-13T04:44:53;100365.84;;;9.18;100.00
51452;BME280;37521;52.020;-1.740;2022-11-13T04:47:39;100369.38;;;9.17;100.00
51452;BME280;37521;52.020;-1.740;2022-11-13T04:50:26;100359.84;;;9.13;100.00
51452;BME280;37521;52.020;-1.740;2022-11-13T04:53:13;100362.50;;;9.13;100.00
51452;BME280;37521;52.020;-1.740;2022-11-13T04:56:01;100361.69;;;9.11;100.00
51452;BME280;37521;52.020;-1.740;2022-11-13T04:58:47;100361.69;;;9.11;100.00
51452;BME280;37521;52.020;-1.740;2022-11-13T05:01:34;100359.97;;;9.10;100.00
51452;BME280;37521;52.020;-1.740;2022-11-13T05:04:21;100356.44;;;9.11;100.00
51452;BME280;37521;52.020;-1.740;2022-11-13T05:07:08;100353.84;;;9.10;100.00
51452;BME280;37521;52.020;-1.740;2022-11-13T05:09:54;100353.84;;;9.10;100.00
51452;BME280;37521;52.020;-1.740;2022-11-13T05:12:42;100356.50;;;9.08;100.00
51452;BME280;37521;52.020;-1.740;2022-11-13T05:15:29;100359.16;;;9.08;100.00
51452;BME280;37521;52.020;-1.740;2022-11-13T05:18:16;100359.25;;;9.05;100.00
51452;BME280;37521;52.020;-1.740;2022-11-13T05:21:03;100359.22;;;9.07;100.00
51452;BME280;37521;52.020;-1.740;2022-11-13T05:23:50;100368.88;;;9.06;100.00
51452;BME280;37521;52.020;-1.740;2022-11-13T05:26:37;100371.47;;;9.08;100.00
51452;BME280;37521;52.020;-1.740;2022-11-13T05:29:26;100372.31;;;9.08;100.00
51452;BME280;37521;52.020;-1.740;2022-11-13T05:32:12;100374.94;;;9.10;100.00
51452;BME280;37521;52.020;-1.740;2022-11-13T05:34:58;100374.00;;;9.11;100.00
51452;BME280;37521;52.020;-1.740;2022-11-13T05:37:45;100378.41;;;9.10;100.00
51452;BME280;37521;52.020;-1.740;2022-11-13T05:40:32;100373.19;;;9.09;100.00
51452;BME280;37521;52.020;-1.740;2022-11-13T05:43:19;100377.59;;;9.08;100.00
51452;BME280;37521;52.020;-1.740;2022-11-13T05:46:08;100383.72;;;9.09;100.00
51452;BME280;37521;52.020;-1.740;2022-11-13T05:48:57;100380.19;;;9.10;100.00
51452;BME280;37521;52.020;-1.740;2022-11-13T05:51:44;100380.19;;;9.10;100.00
51452;BME280;37521;52.020;-1.740;2022-11-13T05:54:31;100366.13;;;9.09;100.00
51452;BME280;37521;52.020;-1.740;2022-11-13T05:57:18;100367.06;;;9.08;100.00
51452;BME280;37521;52.020;-1.740;2022-11-13T06:00:05;100365.34;;;9.07;100.00
51452;BME280;37521;52.020;-1.740;2022-11-13T06:02:53;100366.19;;;9.08;100.00
51452;BME280;37521;52.020;-1.740;2022-11-13T06:05:40;100371.41;;;9.09;100.00
51452;BME280;37521;52.020;-1.740;2022-11-13T06:08:27;100369.66;;;9.10;100.00
51452;BME280;37521;52.020;-1.740;2022-11-13T06:11:17;100369.66;;;9.10;100.00
51452;BME280;37521;52.020;-1.740;2022-11-13T06:14:04;100356.50;;;9.08;100.00
51452;BME280;37521;52.020;-1.740;2022-11-13T06:16:51;100365.34;;;9.07;100.00
51452;BME280;37521;52.020;-1.740;2022-11-13T06:19:39;100364.47;;;9.07;100.00
51452;BME280;37521;52.020;-1.740;2022-11-13T06:22:26;100368.03;;;9.06;100.00
51452;BME280;37521;52.020;-1.740;2022-11-13T06:25:12;100357.56;;;9.04;100.00
51452;BME280;37521;52.020;-1.740;2022-11-13T06:27:59;100360.19;;;9.04;100.00
51452;BME280;37521;52.020;-1.740;2022-11-13T06:30:46;100358.47;;;9.03;100.00
51452;BME280;37521;52.020;-1.740;2022-11-13T06:33:33;100355.84;;;9.03;100.00
51452;BME280;37521;52.020;-1.740;2022-11-13T06:36:22;100362.81;;;9.04;100.00
51452;BME280;37521;52.020;-1.740;2022-11-13T06:39:09;100354.06;;;9.04;100.00
51452;BME280;37521;52.020;-1.740;2022-11-13T06:41:56;100354.09;;;9.02;100.00
51452;BME280;37521;52.020;-1.740;2022-11-13T06:44:42;100353.28;;;9.00;100.00
51452;BME280;37521;52.020;-1.740;2022-11-13T06:47:29;100355.13;;;8.98;100.00
51452;BME280;37521;52.020;-1.740;2022-11-13T06:50:16;100348.16;;;8.97;100.00
51452;BME280;37521;52.020;-1.740;2022-11-13T06:53:04;100350.81;;;8.95;100.00
51452;BME280;37521;52.020;-1.740;2022-11-13T06:55:50;100364.81;;;8.97;100.00
51452;BME280;37521;52.020;-1.740;2022-11-13T06:58:37;100363.94;;;8.97;100.00
51452;BME280;37521;52.020;-1.740;2022-11-13T07:01:25;100363.94;;;8.97;100.00
51452;BME280;37521;52.020;-1.740;2022-11-13T07:04:12;100355.13;;;8.98;100.00
51452;BME280;37521;52.020;-1.740;2022-11-13T07:06:58;100343.72;;;8.97;100.00
51452;BME280;37521;52.020;-1.740;2022-11-13T07:09:46;100345.53;;;8.95;100.00
51452;BME280;37521;52.020;-1.740;2022-11-13T07:12:33;100344.69;;;8.95;100.00
51452;BME280;37521;52.020;-1.740;2022-11-13T07:15:20;100349.16;;;8.93;100.00
51452;BME280;37521;52.020;-1.740;2022-11-13T07:18:06;100343.81;;;8.94;100.00
51452;BME280;37521;52.020;-1.740;2022-11-13T07:20:53;100339.41;;;8.95;100.00
51452;BME280;37521;52.020;-1.740;2022-11-13T07:23:40;100346.50;;;8.93;100.00
51452;BME280;37521;52.020;-1.740;2022-11-13T07:26:29;100350.91;;;8.92;100.00
51452;BME280;37521;52.020;-1.740;2022-11-13T07:29:15;100358.75;;;8.94;100.00
51452;BME280;37521;52.020;-1.740;2022-11-13T07:32:02;100351.78;;;8.93;100.00
51452;BME280;37521;52.020;-1.740;2022-11-13T07:34:49;100349.16;;;8.93;100.00
51452;BME280;37521;52.020;-1.740;2022-11-13T07:37:35;100353.50;;;8.94;100.00
51452;BME280;37521;52.020;-1.740;2022-11-13T07:40:22;100349.94;;;8.95;100.00
51452;BME280;37521;52.020;-1.740;2022-11-13T07:43:10;100356.13;;;8.94;100.00
51452;BME280;37521;52.020;-1.740;2022-11-13T07:45:57;100360.47;;;8.95;100.00
51452;BME280;37521;52.020;-1.740;2022-11-13T07:48:43;100365.75;;;8.95;100.00
51452;BME280;37521;52.020;-1.740;2022-11-13T07:51:30;100361.34;;;8.95;100.00
51452;BME280;37521;52.020;-1.740;2022-11-13T07:54:17;100350.88;;;8.94;100.00
51452;BME280;37521;52.020;-1.740;2022-11-13T07:57:03;100350.88;;;8.94;100.00
51452;BME280;37521;52.020;-1.740;2022-11-13T07:59:51;100343.09;;;8.91;100.00
51452;BME280;37521;52.020;-1.740;2022-11-13T08:02:38;100347.56;;;8.87;100.00
51452;BME280;37521;52.020;-1.740;2022-11-13T08:05:24;100341.56;;;8.84;100.00
51452;BME280;37521;52.020;-1.740;2022-11-13T08:08:11;100348.63;;;8.83;100.00
51452;BME280;37521;52.020;-1.740;2022-11-13T08:11:02;100343.50;;;8.79;100.00
51452;BME280;37521;52.020;-1.740;2022-11-13T08:13:51;100337.44;;;8.77;100.00
51452;BME280;37521;52.020;-1.740;2022-11-13T08:16:39;100343.56;;;8.76;100.00
51452;BME280;37521;52.020;-1.740;2022-11-13T08:19:25;100340.06;;;8.77;100.00
51452;BME280;37521;52.020;-1.740;2022-11-13T08:22:12;100342.69;;;8.77;100.00
51452;BME280;37521;52.020;-1.740;2022-11-13T08:24:58;100340.06;;;8.77;100.00
51452;BME280;37521;52.020;-1.740;2022-11-13T08:27:45;100346.28;;;8.74;100.00
51452;BME280;37521;52.020;-1.740;2022-11-13T08:30:32;100343.81;;;8.69;100.00
51452;BME280;37521;52.020;-1.740;2022-11-13T08:33:20;100346.47;;;8.68;100.00
51452;BME280;37521;52.020;-1.740;2022-11-13T08:36:08;100337.63;;;8.70;100.00
51452;BME280;37521;52.020;-1.740;2022-11-13T08:38:54;100333.16;;;8.72;100.00
51452;BME280;37521;52.020;-1.740;2022-11-13T08:41:41;100326.91;;;8.77;100.00
51452;BME280;37521;52.020;-1.740;2022-11-13T08:44:27;100324.16;;;8.80;100.00
51452;BME280;37521;52.020;-1.740;2022-11-13T08:47:14;100317.03;;;8.82;100.00
51452;BME280;37521;52.020;-1.740;2022-11-13T08:50:03;100309.97;;;8.84;100.00
51452;BME280;37521;52.020;-1.740;2022-11-13T08:52:53;100313.41;;;8.86;100.00
51452;BME280;37521;52.020;-1.740;2022-11-13T08:55:39;100313.41;;;8.86;100.00
51452;BME280;37521;52.020;-1.740;2022-11-13T08:58:26;100313.34;;;8.87;100.00
51452;BME280;37521;52.020;-1.740;2022-11-13T09:01:13;100309.75;;;8.90;100.00
51452;BME280;37521;52.020;-1.740;2022-11-13T09:04:02;100309.59;;;8.94;100.00
51452;BME280;37521;52.020;-1.740;2022-11-13T09:06:50;100300.03;;;8.92;100.00
51452;BME280;37521;52.020;-1.740;2022-11-13T09:09:37;100289.38;;;8.95;100.00
51452;BME280;37521;52.020;-1.740;2022-11-13T09:12:23;100295.50;;;8.95;100.00
51452;BME280;37521;52.020;-1.740;2022-11-13T09:15:11;100294.50;;;8.99;100.00
51452;BME280;37521;52.020;-1.740;2022-11-13T09:17:59;100291.72;;;9.04;100.00
51452;BME280;37521;52.020;-1.740;2022-11-13T09:20:45;100296.00;;;9.07;100.00
51452;BME280;37521;52.020;-1.740;2022-11-13T09:23:33;100297.66;;;9.09;100.00
51452;BME280;37521;52.020;-1.740;2022-11-13T09:26:20;100299.41;;;9.09;100.00
51452;BME280;37521;52.020;-1.740;2022-11-13T09:29:07;100298.47;;;9.11;100.00
51452;BME280;37521;52.020;-1.740;2022-11-13T09:31:54;100289.75;;;9.09;100.00
51452;BME280;37521;52.020;-1.740;2022-11-13T09:34:41;100298.47;;;9.11;100.00
51452;BME280;37521;52.020;-1.740;2022-11-13T09:37:28;100303.53;;;9.17;100.00
51452;BME280;37521;52.020;-1.740;2022-11-13T09:40:26;100297.06;;;9.26;100.00
51452;BME280;37521;52.020;-1.740;2022-11-13T09:43:23;100302.25;;;9.27;100.00
51452;BME280;37521;52.020;-1.740;2022-11-13T09:46:17;100296.94;;;9.29;100.00
51452;BME280;37521;52.020;-1.740;2022-11-13T09:49:13;100306.59;;;9.28;100.00
51452;BME280;37521;52.020;-1.740;2022-11-13T09:52:04;100301.13;;;9.35;100.00
51452;BME280;37521;52.020;-1.740;2022-11-13T09:54:54;100288.78;;;9.37;100.00
51452;BME280;37521;52.020;-1.740;2022-11-13T09:57:47;100280.91;;;9.35;100.00
51452;BME280;37521;52.020;-1.740;2022-11-13T10:00:35;100289.91;;;9.30;100.00
51452;BME280;37521;52.020;-1.740;2022-11-13T10:03:29;100264.69;;;9.22;100.00
51452;BME280;37521;52.020;-1.740;2022-11-13T10:06:45;100257.59;;;9.24;100.00
51452;BME280;37521;52.020;-1.740;2022-11-13T10:09:45;100263.81;;;9.22;100.00
51452;BME280;37521;52.020;-1.740;2022-11-13T10:12:33;100259.81;;;9.35;100.00
51452;BME280;37521;52.020;-1.740;2022-11-13T10:15:21;100251.28;;;9.52;100.00
51452;BME280;37521;52.020;-1.740;2022-11-13T10:18:12;100249.53;;;9.74;100.00
51452;BME280;37521;52.020;-1.740;2022-11-13T10:21:08;100246.19;;;9.93;100.00
51452;BME280;37521;52.020;-1.740;2022-11-13T10:23:56;100249.91;;;9.87;100.00
51452;BME280;37521;52.020;-1.740;2022-11-13T10:26:43;100248.50;;;9.78;100.00
51452;BME280;37521;52.020;-1.740;2022-11-13T10:29:29;100263.63;;;9.73;100.00
51452;BME280;37521;52.020;-1.740;2022-11-13T10:32:20;100263.56;;;9.75;100.00
51452;BME280;37521;52.020;-1.740;2022-11-13T10:35:27;100255.09;;;9.90;100.00
51452;BME280;37521;52.020;-1.740;2022-11-13T10:38:21;100246.78;;;10.21;100.00
51452;BME280;37521;52.020;-1.740;2022-11-13T10:41:11;100243.28;;;10.43;100.00
51452;BME280;37521;52.020;-1.740;2022-11-13T10:44:00;100249.75;;;10.56;100.00
51452;BME280;37521;52.020;-1.740;2022-11-13T10:46:47;100250.06;;;10.70;100.00
51452;BME280;37521;52.020;-1.740;2022-11-13T10:49:34;100240.66;;;10.83;100.00
51452;BME280;37521;52.020;-1.740;2022-11-13T10:52:22;100241.06;;;10.74;100.00
51452;BME280;37521;52.020;-1.740;2022-11-13T10:55:16;100242.38;;;10.64;100.00
51452;BME280;37521;52.020;-1.740;2022-11-13T10:58:12;100248.72;;;10.60;100.00
51452;BME280;37521;52.020;-1.740;2022-11-13T11:00:59;100248.97;;;10.54;100.00
51452;BME280;37521;52.020;-1.740;2022-11-13T11:03:49;100256.28;;;10.47;100.00
51452;BME280;37521;52.020;-1.740;2022-11-13T11:06:38;100256.47;;;10.43;100.00
51452;BME280;37521;52.020;-1.740;2022-11-13T11:09:46;100249.38;;;10.45;100.00
51452;BME280;37521;52.020;-1.740;2022-11-13T11:12:32;100244.19;;;10.42;100.00
51452;BME280;37521;52.020;-1.740;2022-11-13T11:15:24;100242.56;;;10.39;100.00
51452;BME280;37521;52.020;-1.740;2022-11-13T11:18:21;100246.06;;;10.40;100.00
51452;BME280;37521;52.020;-1.740;2022-11-13T11:21:14;100241.81;;;10.35;100.00
51452;BME280;37521;52.020;-1.740;2022-11-13T11:24:08;100228.63;;;10.35;100.00
51452;BME280;37521;52.020;-1.740;2022-11-13T11:27:02;100216.34;;;10.34;100.00
51452;BME280;37521;52.020;-1.740;2022-11-13T11:29:59;100214.63;;;10.33;100.00
51452;BME280;37521;52.020;-1.740;2022-11-13T11:32:55;100206.84;;;10.30;100.00
51452;BME280;37521;52.020;-1.740;2022-11-13T11:35:47;100199.06;;;10.27;100.00
51452;BME280;37521;52.020;-1.740;2022-11-13T11:38:41;100192.84;;;10.49;100.00
51452;BME280;37521;52.020;-1.740;2022-11-13T11:41:37;100188.06;;;10.98;100.00
51452;BME280;37521;52.020;-1.740;2022-11-13T11:44:30;100188.66;;;11.23;100.00
51452;BME280;37521;52.020;-1.740;2022-11-13T11:47:19;100186.00;;;11.61;100.00
51452;BME280;37521;52.020;-1.740;2022-11-13T11:50:11;100179.56;;;11.66;100.00
51452;BME280;37521;52.020;-1.740;2022-11-13T11:53:03;100176.03;;;11.11;100.00
51452;BME280;37521;52.020;-1.740;2022-11-13T11:56:01;100169.66;;;10.76;100.00
51452;BME280;37521;52.020;-1.740;2022-11-13T11:59:03;100158.94;;;10.60;100.00
51452;BME280;37521;52.020;-1.740;2022-11-13T12:02:06;100148.78;;;10.51;100.00
51452;BME280;37521;52.020;-1.740;2022-11-13T12:05:10;100149.97;;;10.44;100.00
51452;BME280;37521;52.020;-1.740;2022-11-13T12:08:12;100128.91;;;10.42;100.00
51452;BME280;37521;52.020;-1.740;2022-11-13T12:11:10;100131.28;;;10.48;100.00
51452;BME280;37521;52.020;-1.740;2022-11-13T12:14:07;100122.44;;;10.49;100.00
51452;BME280;37521;52.020;-1.740;2022-11-13T12:17:07;100113.66;;;10.49;100.00
51452;BME280;37521;52.020;-1.740;2022-11-13T12:20:10;100117.13;;;10.51;100.00
51452;BME280;37521;52.020;-1.740;2022-11-13T12:23:12;100109.22;;;10.49;100.00
51452;BME280;37521;52.020;-1.740;2022-11-13T12:26:06;100111.84;;;10.51;100.00
51452;BME280;37521;52.020;-1.740;2022-11-13T12:29:05;100100.13;;;10.56;100.00
51452;BME280;37521;52.020;-1.740;2022-11-13T12:32:03;100098.06;;;10.63;100.00
51452;BME280;37521;52.020;-1.740;2022-11-13T12:34:56;100093.44;;;10.68;100.00
51452;BME280;37521;52.020;-1.740;2022-11-13T12:37:50;100085.22;;;10.74;100.00
51452;BME280;37521;52.020;-1.740;2022-11-13T12:40:52;100077.81;;;10.82;100.00
51452;BME280;37521;52.020;-1.740;2022-11-13T12:43:52;100074.88;;;10.88;100.00
51452;BME280;37521;52.020;-1.740;2022-11-13T12:46:44;100078.09;;;10.95;100.00
51452;BME280;37521;52.020;-1.740;2022-11-13T12:49:32;100067.41;;;10.98;100.00
51452;BME280;37521;52.020;-1.740;2022-11-13T12:52:21;100063.75;;;11.01;100.00
51452;BME280;37521;52.020;-1.740;2022-11-13T12:55:26;100064.41;;;11.06;100.00
51452;BME280;37521;52.020;-1.740;2022-11-13T12:58:19;100059.88;;;11.08;100.00
51452;BME280;37521;52.020;-1.740;2022-11-13T13:01:16;100064.88;;;11.14;100.00
51452;BME280;37521;52.020;-1.740;2022-11-13T13:04:24;100054.03;;;11.20;100.00
51452;BME280;37521;52.020;-1.740;2022-11-13T13:07:22;100044.00;;;11.27;100.00
51452;BME280;37521;52.020;-1.740;2022-11-13T13:10:15;100045.63;;;11.29;100.00
51452;BME280;37521;52.020;-1.740;2022-11-13T13:13:11;100037.69;;;11.29;100.00
51452;BME280;37521;52.020;-1.740;2022-11-13T13:16:09;100026.34;;;11.27;100.00
51452;BME280;37521;52.020;-1.740;2022-11-13T13:19:06;100030.50;;;11.33;100.00
51452;BME280;37521;52.020;-1.740;2022-11-13T13:21:54;100034.47;;;11.41;100.00
51452;BME280;37521;52.020;-1.740;2022-11-13T13:24:41;100032.28;;;11.50;100.00
51452;BME280;37521;52.020;-1.740;2022-11-13T13:27:29;100023.91;;;11.59;100.00
51452;BME280;37521;52.020;-1.740;2022-11-13T13:30:19;100030.75;;;11.63;100.00
51452;BME280;37521;52.020;-1.740;2022-11-13T13:33:19;100022.97;;;11.60;100.00
51452;BME280;37521;52.020;-1.740;2022-11-13T13:36:14;100012.41;;;11.60;100.00
51452;BME280;37521;52.020;-1.740;2022-11-13T13:39:18;100012.00;;;11.67;100.00
51452;BME280;37521;52.020;-1.740;2022-11-13T13:42:20;100002.16;;;11.71;100.00
51452;BME280;37521;52.020;-1.740;2022-11-13T13:45:20;100003.69;;;11.75;100.00
51452;BME280;37521;52.020;-1.740;2022-11-13T13:48:12;99995.50;;;11.80;100.00
51452;BME280;37521;52.020;-1.740;2022-11-13T13:51:02;99982.09;;;11.84;100.00
51452;BME280;37521;52.020;-1.740;2022-11-13T13:53:49;99985.50;;;11.86;100.00
51452;BME280;37521;52.020;-1.740;2022-11-13T13:56:40;99977.25;;;11.92;100.00
51452;BME280;37521;52.020;-1.740;2022-11-13T13:59:31;99973.34;;;11.82;100.00
51452;BME280;37521;52.020;-1.740;2022-11-13T14:02:20;99962.06;;;11.79;100.00
51452;BME280;37521;52.020;-1.740;2022-11-13T14:05:22;99962.16;;;11.77;100.00
51452;BME280;37521;52.020;-1.740;2022-11-13T14:08:16;99963.00;;;11.78;100.00
51452;BME280;37521;52.020;-1.740;2022-11-13T14:11:15;99959.66;;;11.74;100.00
51452;BME280;37521;52.020;-1.740;2022-11-13T14:14:15;99965.13;;;11.71;100.00
51452;BME280;37521;52.020;-1.740;2022-11-13T14:17:02;99961.13;;;11.80;100.00
51452;BME280;37521;52.020;-1.740;2022-11-13T14:19:50;99964.63;;;11.80;100.00
51452;BME280;37521;52.020;-1.740;2022-11-13T14:22:38;99957.34;;;11.85;100.00
51452;BME280;37521;52.020;-1.740;2022-11-13T14:25:27;99952.81;;;11.87;100.00
51452;BME280;37521;52.020;-1.740;2022-11-13T14:28:16;99952.59;;;11.92;100.00
51452;BME280;37521;52.020;-1.740;2022-11-13T14:31:06;99952.81;;;11.87;100.00
51452;BME280;37521;52.020;-1.740;2022-11-13T14:33:54;99954.03;;;11.80;100.00